createdAt,value
2019-02-21T00:01:04.470Z,183.47
2019-02-21T00:05:15.610Z,175.73
2019-02-21T00:09:26.617Z,177.33
2019-02-21T00:13:37.637Z,181.70
2019-02-21T00:17:48.834Z,177.97
2019-02-21T00:22:00.107Z,181.53
2019-02-21T00:26:11.283Z,179.43
2019-02-21T00:30:22.616Z,180.33
2019-02-21T00:34:34.279Z,186.03
2019-02-21T00:38:45.531Z,177.60
2019-02-21T00:42:56.630Z,179.47
2019-02-21T00:47:07.623Z,179.10
2019-02-21T00:51:18.794Z,180.87
2019-02-21T00:55:30.744Z,185.70
2019-02-21T00:59:41.740Z,180.13
2019-02-21T01:03:52.742Z,175.30
2019-02-21T01:08:03.831Z,176.20
2019-02-21T01:12:15.021Z,176.73
2019-02-21T01:16:26.292Z,180.03
2019-02-21T01:20:37.391Z,185.90
2019-02-21T01:24:48.494Z,180.20
2019-02-21T01:28:59.579Z,180.00
2019-02-21T01:33:10.681Z,179.47
2019-02-21T01:37:21.891Z,182.10
2019-02-21T01:41:32.986Z,178.87
2019-02-21T01:45:44.073Z,180.73
2019-02-21T01:49:55.082Z,180.40
2019-02-21T01:54:06.076Z,175.97
2019-02-21T01:58:16.103Z,177.77
2019-02-21T02:02:27.212Z,180.37
2019-02-21T02:06:38.205Z,176.97
2019-02-21T02:10:49.201Z,178.33
2019-02-21T02:15:00.304Z,177.30
2019-02-21T02:19:11.301Z,176.63
2019-02-21T02:23:22.308Z,183.63
2019-02-21T02:27:33.419Z,177.80
2019-02-21T02:31:44.703Z,178.23
2019-02-21T02:35:55.991Z,181.97
2019-02-21T02:40:08.054Z,175.43
2019-02-21T02:44:19.048Z,179.37
2019-02-21T02:48:30.152Z,176.53
2019-02-21T02:52:41.152Z,179.40
2019-02-21T02:56:52.255Z,181.65
2019-02-21T03:01:03.363Z,179.67
2019-02-21T03:05:14.349Z,177.63
2019-02-21T03:09:25.353Z,178.93
2019-02-21T03:13:36.355Z,180.33
2019-02-21T03:17:47.361Z,182.57
2019-02-21T03:21:58.484Z,188.23
2019-02-21T03:26:09.953Z,185.57
2019-02-21T03:30:20.941Z,186.37
2019-02-21T03:34:31.936Z,178.97
2019-02-21T03:38:43.043Z,189.93
2019-02-21T03:42:54.145Z,181.97
2019-02-21T03:47:05.161Z,181.33
2019-02-21T03:51:16.415Z,184.57
2019-02-21T03:55:27.625Z,182.53
2019-02-21T03:59:37.708Z,192.77
2019-02-21T04:03:49.177Z,184.23
2019-02-21T04:08:00.365Z,182.67
2019-02-21T04:12:11.455Z,180.90
2019-02-21T04:16:22.575Z,177.37
2019-02-21T04:20:33.668Z,190.07
2019-02-21T04:24:44.663Z,183.13
2019-02-21T04:28:55.659Z,179.67
2019-02-21T04:33:06.663Z,185.00
2019-02-21T04:37:17.757Z,183.43
2019-02-21T04:41:28.751Z,177.27
2019-02-21T04:45:39.767Z,178.83
2019-02-21T04:49:50.864Z,178.80
2019-02-21T04:54:01.866Z,179.63
2019-02-21T04:58:12.874Z,185.83
2019-02-21T05:02:29.185Z,191.43
2019-02-21T05:06:37.157Z,183.23
2019-02-21T05:10:48.149Z,179.47
2019-02-21T05:14:59.260Z,177.43
2019-02-21T05:19:10.466Z,181.30
2019-02-21T05:23:21.567Z,178.77
2019-02-21T05:27:33.456Z,182.17
2019-02-21T05:31:49.292Z,183.77
2019-02-21T05:36:01.944Z,177.83
2019-02-21T05:40:28.592Z,176.70
2019-02-21T05:44:44.145Z,180.70
2019-02-21T05:48:57.782Z,184.60
2019-02-21T05:53:22.281Z,180.40
2019-02-21T05:57:51.183Z,179.53
2019-02-21T06:02:04.031Z,180.90
2019-02-21T06:06:32.029Z,182.40
2019-02-21T06:10:56.491Z,179.87
2019-02-21T06:15:27.670Z,180.43
2019-02-21T06:19:40.731Z,183.60
2019-02-21T06:24:08.268Z,180.63
2019-02-21T06:28:23.184Z,196.93
2019-02-21T06:32:34.298Z,183.97
2019-02-21T06:36:45.403Z,175.20
2019-02-21T06:40:56.400Z,179.30
2019-02-21T06:45:08.080Z,176.33
2019-02-21T06:49:19.162Z,183.57
2019-02-21T06:53:30.192Z,183.07
2019-02-21T06:57:41.193Z,183.10
2019-02-21T07:01:52.322Z,183.80
2019-02-21T07:06:03.358Z,180.40
2019-02-21T07:10:14.342Z,188.53
2019-02-21T07:14:25.457Z,183.17
2019-02-21T07:18:37.513Z,179.57
2019-02-21T07:22:48.507Z,185.27
2019-02-21T07:27:01.562Z,177.77
2019-02-21T07:31:12.462Z,181.87
2019-02-21T07:35:23.467Z,178.67
2019-02-21T07:39:36.329Z,179.47
2019-02-21T07:43:47.971Z,183.43
2019-02-21T07:47:58.992Z,181.50
2019-02-21T07:52:10.093Z,193.40
2019-02-21T07:56:21.124Z,187.53
2019-02-21T08:00:32.866Z,191.10
2019-02-21T08:04:44.290Z,185.33
2019-02-21T08:08:55.383Z,182.90
2019-02-21T08:13:06.483Z,184.60
2019-02-21T08:17:17.507Z,186.73
2019-02-21T08:21:28.859Z,194.63
2019-02-21T08:25:39.828Z,193.27
2019-02-21T08:29:50.922Z,190.37
2019-02-21T08:34:04.457Z,185.60
2019-02-21T08:38:15.560Z,186.57
2019-02-21T08:42:26.653Z,186.63
2019-02-21T08:46:37.748Z,192.47
2019-02-21T08:50:48.942Z,196.27
2019-02-21T08:55:00.744Z,186.33
2019-02-21T08:59:12.036Z,187.57
2019-02-21T09:03:23.300Z,188.40
2019-02-21T09:07:34.391Z,187.43
2019-02-21T09:11:45.496Z,185.97
2019-02-21T09:15:56.608Z,181.57
2019-02-21T09:20:09.668Z,183.53
2019-02-21T09:24:37.432Z,185.17
2019-02-21T09:28:33.315Z,185.03
2019-02-21T09:32:44.607Z,183.83
2019-02-21T09:36:55.770Z,181.37
2019-02-21T09:41:07.157Z,191.53
2019-02-21T09:45:18.909Z,183.90
2019-02-21T09:49:29.907Z,188.50
2019-02-21T09:53:41.009Z,194.57
2019-02-21T09:57:52.043Z,189.13
2019-02-21T10:02:05.921Z,187.27
2019-02-21T10:06:16.916Z,187.07
2019-02-21T10:10:28.041Z,188.67
2019-02-21T10:14:39.139Z,182.60
2019-02-21T10:18:50.138Z,189.57
2019-02-21T10:23:01.295Z,191.00
2019-02-21T10:27:12.389Z,194.10
2019-02-21T10:31:23.457Z,192.20
2019-02-21T10:35:34.566Z,192.83
2019-02-21T10:39:47.690Z,191.87
2019-02-21T10:43:57.990Z,191.00
2019-02-21T10:48:09.796Z,184.80
2019-02-21T10:52:19.846Z,186.13
2019-02-21T10:56:30.843Z,189.80
2019-02-21T11:00:42.909Z,181.27
2019-02-21T11:04:55.113Z,185.80
2019-02-21T11:09:08.333Z,181.00
2019-02-21T11:13:19.406Z,177.70
2019-02-21T11:17:32.094Z,185.97
2019-02-21T11:21:42.121Z,178.87
2019-02-21T11:25:53.156Z,182.10
2019-02-21T11:30:07.475Z,177.20
2019-02-21T11:34:18.469Z,186.60
2019-02-21T11:38:30.199Z,181.83
2019-02-21T11:42:41.639Z,178.37
2019-02-21T11:46:52.751Z,184.03
2019-02-21T11:51:04.033Z,185.47
2019-02-21T11:55:22.785Z,193.73
2019-02-21T11:59:33.784Z,190.77
2019-02-21T12:03:44.895Z,189.33
2019-02-21T12:07:57.667Z,184.93
2019-02-21T12:12:10.396Z,188.07
2019-02-21T12:16:21.329Z,181.50
2019-02-21T12:20:32.438Z,191.10
2019-02-21T12:24:43.533Z,206.33
2019-02-21T12:28:54.545Z,187.92
2019-02-21T12:33:05.623Z,188.70
2019-02-21T12:37:16.633Z,188.70
2019-02-21T12:41:27.632Z,189.23
2019-02-21T12:45:38.646Z,183.23
2019-02-21T12:49:49.819Z,184.23
2019-02-21T12:54:00.830Z,182.53
2019-02-21T12:58:11.829Z,186.60
2019-02-21T13:02:22.940Z,181.87
2019-02-21T13:06:34.056Z,179.30
2019-02-21T13:10:45.163Z,186.83
2019-02-21T13:14:56.267Z,178.67
2019-02-21T13:19:07.386Z,183.80
2019-02-21T13:23:18.405Z,174.70
2019-02-21T13:27:29.437Z,184.75
2019-02-21T13:31:40.483Z,181.23
2019-02-21T13:35:53.031Z,189.10
2019-02-21T13:40:06.330Z,176.97
2019-02-21T13:44:17.911Z,188.77
2019-02-21T13:48:29.777Z,185.97
2019-02-21T13:52:40.884Z,183.70
2019-02-21T13:56:51.579Z,185.27
2019-02-21T14:01:02.586Z,182.90
2019-02-21T14:05:13.520Z,180.27
2019-02-21T14:09:24.662Z,179.37
2019-02-21T14:13:36.584Z,174.47
2019-02-21T14:17:48.258Z,178.17
2019-02-21T14:21:59.260Z,174.57
2019-02-21T14:26:10.368Z,180.07
2019-02-21T14:30:22.122Z,178.23
2019-02-21T14:34:33.122Z,173.83
2019-02-21T14:38:44.135Z,175.07
2019-02-21T14:42:55.252Z,178.87
2019-02-21T14:47:08.058Z,176.33
2019-02-21T14:51:18.994Z,175.10
2019-02-21T14:55:30.194Z,175.27
2019-02-21T14:59:41.326Z,171.27
2019-02-21T15:03:52.344Z,172.70
2019-02-21T15:08:03.685Z,174.70
2019-02-21T15:12:14.689Z,178.60
2019-02-21T15:16:25.804Z,177.10
2019-02-21T15:20:37.347Z,175.83
2019-02-21T15:24:48.401Z,181.27
2019-02-21T15:29:01.311Z,181.50
2019-02-21T15:33:12.426Z,181.43
2019-02-21T15:37:23.046Z,175.33
2019-02-21T15:41:34.049Z,174.77
2019-02-21T15:45:46.180Z,172.10
2019-02-21T15:49:57.237Z,177.77
2019-02-21T15:54:08.435Z,181.33
2019-02-21T15:58:19.473Z,176.47
2019-02-21T16:02:30.475Z,175.77
2019-02-21T16:06:50.916Z,170.07
2019-02-21T16:10:54.261Z,175.23
2019-02-21T16:15:06.429Z,177.47
2019-02-21T16:19:17.503Z,177.73
2019-02-21T16:23:29.249Z,174.47
2019-02-21T16:27:40.355Z,188.37
2019-02-21T16:31:51.353Z,180.30
2019-02-21T16:36:02.375Z,190.83
2019-02-21T16:40:17.391Z,183.37
2019-02-21T16:44:28.426Z,180.90
2019-02-21T16:48:39.474Z,184.33
2019-02-21T16:52:50.485Z,173.93
2019-02-21T16:57:01.469Z,182.33
2019-02-21T17:01:12.494Z,176.65
2019-02-21T17:05:24.495Z,182.53
2019-02-21T17:09:35.530Z,184.17
2019-02-21T17:13:46.625Z,189.47
2019-02-21T17:17:56.678Z,181.50
2019-02-21T17:22:08.167Z,187.93
2019-02-21T17:26:20.886Z,182.50
2019-02-21T17:30:33.831Z,187.97
2019-02-21T17:34:44.061Z,182.73
2019-02-21T17:38:55.180Z,186.40
2019-02-21T17:43:06.820Z,183.97
2019-02-21T17:47:17.921Z,190.50
2019-02-21T17:51:28.932Z,193.00
2019-02-21T17:55:40.045Z,196.27
2019-02-21T17:59:51.157Z,188.63
2019-02-21T18:04:02.170Z,187.10
2019-02-21T18:08:14.552Z,191.00
2019-02-21T18:12:25.728Z,185.87
2019-02-21T18:16:50.457Z,189.17
2019-02-21T18:20:52.286Z,186.70
2019-02-21T18:25:04.061Z,188.63
2019-02-21T18:29:15.085Z,183.33
2019-02-21T18:33:26.119Z,186.33
2019-02-21T18:37:46.666Z,189.83
2019-02-21T18:41:49.790Z,186.47
2019-02-21T18:46:02.513Z,184.60
2019-02-21T18:50:14.467Z,189.43
2019-02-21T18:54:25.487Z,186.30
2019-02-21T18:58:36.595Z,186.00
2019-02-21T19:02:47.691Z,183.63
2019-02-21T19:06:58.702Z,181.13
2019-02-21T19:11:10.085Z,178.00
2019-02-21T19:15:22.028Z,185.13
2019-02-21T19:19:33.097Z,184.47
2019-02-21T19:23:44.113Z,182.47
2019-02-21T19:27:55.235Z,182.93
2019-02-21T19:32:06.337Z,183.73
2019-02-21T19:36:17.860Z,178.17
2019-02-21T19:40:28.598Z,187.63
2019-02-21T19:44:39.609Z,190.10
2019-02-21T19:48:51.300Z,181.43
2019-02-21T19:53:03.610Z,186.10
2019-02-21T19:57:14.728Z,185.63
2019-02-21T20:01:25.729Z,189.27
2019-02-21T20:05:36.742Z,176.37
2019-02-21T20:09:48.006Z,184.83
2019-02-21T20:13:59.380Z,192.30
2019-02-21T20:18:10.393Z,191.90
2019-02-21T20:22:22.956Z,191.23
2019-02-21T20:26:34.167Z,187.97
2019-02-21T20:30:45.359Z,183.03
2019-02-21T20:34:56.441Z,185.10
2019-02-21T20:39:09.283Z,187.23
2019-02-21T20:43:20.445Z,192.07
2019-02-21T20:47:31.444Z,190.60
2019-02-21T20:51:42.551Z,192.30
2019-02-21T20:55:53.669Z,188.73
2019-02-21T21:00:10.318Z,182.23
2019-02-21T21:04:21.319Z,191.00
2019-02-21T21:08:42.484Z,189.47
2019-02-21T21:12:45.193Z,187.53
2019-02-21T21:16:56.202Z,180.57
2019-02-21T21:21:07.199Z,193.90
2019-02-21T21:25:18.704Z,173.67
2019-02-21T21:29:29.698Z,196.43
2019-02-21T21:33:40.705Z,186.90
2019-02-21T21:37:51.702Z,195.20
2019-02-21T21:42:02.712Z,192.17
2019-02-21T21:46:13.705Z,188.73
2019-02-21T21:50:24.765Z,203.60
2019-02-21T21:54:37.908Z,193.97
2019-02-21T21:58:48.840Z,196.20
2019-02-21T22:02:59.976Z,195.03
2019-02-21T22:07:11.008Z,191.73
2019-02-21T22:11:22.003Z,193.03
2019-02-21T22:15:33.094Z,197.67
2019-02-21T22:19:44.187Z,191.23
2019-02-21T22:23:55.271Z,203.10
2019-02-21T22:28:07.554Z,195.87
2019-02-21T22:32:19.818Z,194.17
2019-02-21T22:36:31.392Z,207.80
2019-02-21T22:40:42.487Z,195.80
2019-02-21T22:44:53.501Z,202.63
2019-02-21T22:49:04.611Z,193.53
2019-02-21T22:53:15.701Z,205.53
2019-02-21T22:57:26.820Z,200.67
2019-02-21T23:01:37.890Z,196.80
2019-02-21T23:06:26.597Z,185.27
2019-02-21T23:10:37.604Z,198.37
2019-02-21T23:14:49.065Z,198.13
2019-02-21T23:19:19.567Z,202.83
2019-02-21T23:23:30.787Z,201.77
2019-02-21T23:27:41.901Z,211.53
2019-02-21T23:31:52.927Z,207.87
2019-02-21T23:36:04.021Z,205.80
2019-02-21T23:40:15.831Z,199.67
2019-02-21T23:44:27.161Z,207.30
2019-02-21T23:48:38.274Z,206.93
2019-02-21T23:52:49.388Z,202.33
2019-02-21T23:57:00.481Z,200.17
